Time;durP1;ratioP1;P1;durP2;ratioP2;P2;SDS_P1;SDS_P2;PMS_P1;PMS_P2;Temp;Humidity;BMP_temperature;BMP_pressure;BME280_temperature;BME280_humidity;BME280_pressure;Samples;Min_cycle;Max_cycle;Signal;HPM_P1;HPM_P2
2023/12/18 00:01:01;;;;;;;4.77;2.30;;;7.20;99.90;;;;;;5060530;28;20462;-80
2023/12/18 00:03:30;;;;;;;4.40;2.87;;;7.20;99.90;;;;;;5056724;28;20540;-79
2023/12/18 00:05:56;;;;;;;6.23;2.90;;;7.20;99.90;;;;;;5060531;28;20451;-80
2023/12/18 00:08:23;;;;;;;9.13;5.13;;;7.10;99.90;;;;;;5059542;28;20461;-80
2023/12/18 00:10:50;;;;;;;4.83;2.77;;;7.10;99.90;;;;;;5056344;28;20490;-79
2023/12/18 00:13:17;;;;;;;3.67;2.57;;;7.10;99.90;;;;;;5058787;28;20460;-79
2023/12/18 00:15:45;;;;;;;8.50;3.70;;;7.10;99.90;;;;;;5056473;28;20449;-78
2023/12/18 00:18:12;;;;;;;8.37;3.20;;;7.10;99.90;;;;;;5056219;28;20470;-78
2023/12/18 00:20:39;;;;;;;3.80;2.67;;;7.10;99.90;;;;;;5055626;28;20527;-79
2023/12/18 00:23:05;;;;;;;3.43;2.87;;;7.00;99.90;;;;;;5067530;28;20477;-80
2023/12/18 00:25:32;;;;;;;5.43;2.97;;;7.00;99.90;;;;;;5062864;28;21280;-79
2023/12/18 00:27:59;;;;;;;5.00;2.80;;;7.00;99.90;;;;;;5062945;28;20448;-79
2023/12/18 00:30:26;;;;;;;6.10;2.67;;;7.00;99.90;;;;;;5061265;28;20535;-80
2023/12/18 00:32:57;;;;;;;4.80;2.80;;;7.00;99.90;;;;;;5062900;28;20570;-80
2023/12/18 00:35:24;;;;;;;5.33;3.07;;;7.00;99.90;;;;;;5062996;28;20454;-80
2023/12/18 00:37:53;;;;;;;5.83;2.87;;;7.00;99.90;;;;;;5059073;28;20575;-79
2023/12/18 00:40:23;;;;;;;6.47;3.70;;;6.90;99.90;;;;;;5070243;28;21023;-80
2023/12/18 00:42:49;;;;;;;5.47;3.50;;;6.90;99.90;;;;;;5062519;28;20482;-80
2023/12/18 00:45:16;;;;;;;5.63;2.90;;;6.90;99.90;;;;;;5062336;28;20547;-80
2023/12/18 00:47:46;;;;;;;4.20;2.97;;;6.80;99.90;;;;;;5062052;28;20475;-79
2023/12/18 00:50:18;;;;;;;4.23;2.90;;;6.80;99.90;;;;;;5063211;28;20499;-80
2023/12/18 00:52:44;;;;;;;5.70;3.20;;;6.70;99.90;;;;;;5062910;28;20507;-80
2023/12/18 00:55:11;;;;;;;9.03;3.40;;;6.80;99.90;;;;;;5061395;28;21096;-80
2023/12/18 00:57:39;;;;;;;5.37;2.50;;;6.80;99.90;;;;;;5060435;28;20523;-80
2023/12/18 01:00:12;;;;;;;7.87;2.80;;;6.80;99.90;;;;;;5059128;28;20483;-80
2023/12/18 01:02:39;;;;;;;6.23;3.13;;;6.70;99.90;;;;;;5062365;28;20448;-80
2023/12/18 01:05:10;;;;;;;6.47;3.00;;;6.70;99.90;;;;;;5061964;28;20455;-80
2023/12/18 01:07:43;;;;;;;4.60;3.63;;;6.70;99.90;;;;;;5062311;28;20516;-80
2023/12/18 01:10:11;;;;;;;7.40;3.60;;;6.60;99.90;;;;;;5062745;28;20490;-80
2023/12/18 01:12:37;;;;;;;10.00;3.60;;;6.60;99.90;;;;;;5062806;28;20515;-80
2023/12/18 01:15:05;;;;;;;11.43;3.67;;;6.60;99.90;;;;;;5061438;28;20958;-79
2023/12/18 01:17:32;;;;;;;9.23;4.83;;;6.60;99.90;;;;;;5061791;28;20535;-80
2023/12/18 01:19:59;;;;;;;6.53;3.40;;;6.60;99.90;;;;;;5056613;28;20473;-81
2023/12/18 01:22:25;;;;;;;5.97;3.50;;;6.60;99.90;;;;;;5060808;28;20524;-80
2023/12/18 01:24:54;;;;;;;6.37;3.00;;;6.60;99.90;;;;;;5062985;28;20488;-80
2023/12/18 01:27:20;;;;;;;4.73;3.90;;;6.50;99.90;;;;;;5061303;28;20959;-80
2023/12/18 01:29:47;;;;;;;9.40;3.37;;;6.50;99.90;;;;;;5062347;28;20543;-80
2023/12/18 01:32:14;;;;;;;4.97;3.90;;;6.50;99.90;;;;;;5063046;28;20492;-81
2023/12/18 01:34:41;;;;;;;5.50;3.17;;;6.40;99.90;;;;;;5063333;28;20462;-79
2023/12/18 01:37:07;;;;;;;7.60;3.00;;;6.40;99.90;;;;;;5062630;28;20467;-80
2023/12/18 01:39:36;;;;;;;7.70;3.67;;;6.40;99.90;;;;;;5062043;28;20475;-80
2023/12/18 01:42:04;;;;;;;5.83;3.17;;;6.40;99.90;;;;;;5063347;28;20510;-80
2023/12/18 01:44:31;;;;;;;5.13;3.10;;;6.40;99.90;;;;;;5063249;28;20536;-81
2023/12/18 01:46:58;;;;;;;6.93;3.30;;;6.40;99.90;;;;;;5063449;28;20440;-80
2023/12/18 01:49:25;;;;;;;7.40;3.40;;;6.40;99.90;;;;;;5061206;28;20548;-80
2023/12/18 01:51:53;;;;;;;8.97;3.33;;;6.50;99.90;;;;;;5053659;28;20488;-80
2023/12/18 01:54:22;;;;;;;8.03;3.20;;;6.50;99.90;;;;;;5061939;28;20888;-80
2023/12/18 01:56:50;;;;;;;7.70;3.47;;;6.80;99.90;;;;;;5062963;28;20465;-81
2023/12/18 01:59:21;;;;;;;5.60;3.40;;;6.90;99.90;;;;;;5062075;28;20512;-80
2023/12/18 02:01:48;;;;;;;5.17;3.47;;;7.00;99.90;;;;;;5063782;28;20437;-80
2023/12/18 02:04:15;;;;;;;6.73;3.63;;;7.00;99.90;;;;;;5063761;28;20444;-79
2023/12/18 02:06:43;;;;;;;6.03;3.90;;;7.10;99.90;;;;;;5062447;28;20507;-79
2023/12/18 02:09:10;;;;;;;7.03;4.30;;;7.10;99.90;;;;;;5056322;28;20471;-79
2023/12/18 02:11:37;;;;;;;6.43;4.10;;;7.10;99.90;;;;;;5062860;28;20495;-80
2023/12/18 02:14:06;;;;;;;5.63;3.57;;;7.20;99.90;;;;;;5063203;28;20452;-80
2023/12/18 02:16:34;;;;;;;6.77;3.50;;;7.20;99.90;;;;;;5063968;28;20467;-80
2023/12/18 02:19:01;;;;;;;9.17;4.07;;;7.20;99.90;;;;;;5063432;28;20575;-79
2023/12/18 02:21:33;;;;;;;5.00;3.73;;;7.20;99.90;;;;;;5063020;28;20456;-80
2023/12/18 02:24:02;;;;;;;7.37;3.40;;;7.20;99.90;;;;;;5062326;28;20515;-80
2023/12/18 02:26:28;;;;;;;9.73;4.63;;;7.10;99.90;;;;;;5063559;28;20447;-79
2023/12/18 02:28:55;;;;;;;9.07;4.33;;;7.10;99.90;;;;;;5063882;28;20527;-80
2023/12/18 02:31:22;;;;;;;6.70;4.73;;;7.00;99.90;;;;;;5067020;28;20467;-80
2023/12/18 02:33:49;;;;;;;11.57;4.53;;;6.90;99.90;;;;;;5060503;28;20460;-78
2023/12/18 02:36:16;;;;;;;7.30;4.90;;;6.90;99.90;;;;;;5060519;28;20481;-80
2023/12/18 02:38:43;;;;;;;9.40;6.30;;;6.90;99.90;;;;;;5060767;28;20452;-80
2023/12/18 02:41:11;;;;;;;10.33;5.30;;;6.80;99.90;;;;;;5059816;28;20447;-80
2023/12/18 02:43:38;;;;;;;7.93;5.10;;;6.80;99.90;;;;;;5060900;28;20451;-80
2023/12/18 02:46:05;;;;;;;12.20;5.50;;;6.80;99.90;;;;;;5060718;28;20561;-80
2023/12/18 02:48:32;;;;;;;12.10;4.97;;;6.70;99.90;;;;;;5060609;28;20534;-79
2023/12/18 02:50:59;;;;;;;17.50;5.30;;;6.60;99.90;;;;;;5060221;28;20523;-79
2023/12/18 02:53:25;;;;;;;11.17;6.23;;;6.60;99.90;;;;;;5061068;28;20484;-79
2023/12/18 02:55:52;;;;;;;10.10;5.83;;;6.50;99.90;;;;;;5053656;28;20544;-80
2023/12/18 02:58:22;;;;;;;14.60;6.80;;;6.50;99.90;;;;;;5054644;28;20462;-80
2023/12/18 03:00:49;;;;;;;12.60;6.93;;;6.40;99.90;;;;;;5059982;28;20541;-79
2023/12/18 03:03:16;;;;;;;14.67;7.77;;;6.40;99.90;;;;;;5062464;28;20450;-79
2023/12/18 03:05:43;;;;;;;10.93;6.53;;;6.40;99.90;;;;;;5061600;28;20462;-79
2023/12/18 03:08:12;;;;;;;13.03;7.27;;;6.40;99.90;;;;;;5061851;28;20517;-79
2023/12/18 03:10:39;;;;;;;16.63;6.80;;;6.30;99.90;;;;;;5062967;28;20471;-80
2023/12/18 03:13:05;;;;;;;12.63;6.97;;;6.30;99.90;;;;;;5063300;28;20499;-79
2023/12/18 03:15:34;;;;;;;14.93;7.07;;;6.20;99.90;;;;;;5063907;28;20456;-79
2023/12/18 03:18:01;;;;;;;11.60;7.60;;;6.20;99.90;;;;;;5062433;28;20455;-80
2023/12/18 03:20:27;;;;;;;16.00;6.80;;;6.20;99.90;;;;;;5062822;28;20478;-80
2023/12/18 03:22:54;;;;;;;14.80;7.37;;;6.00;99.90;;;;;;5063030;28;20461;-80
2023/12/18 03:25:21;;;;;;;14.50;6.90;;;6.00;99.90;;;;;;5064402;28;20951;-80
2023/12/18 03:27:48;;;;;;;16.70;7.30;;;5.90;99.90;;;;;;5065263;28;20455;-80
2023/12/18 03:30:15;;;;;;;24.00;10.83;;;5.90;99.90;;;;;;5063631;28;20510;-80
2023/12/18 03:32:43;;;;;;;14.50;8.73;;;5.80;99.90;;;;;;5063725;28;20531;-80
2023/12/18 03:35:10;;;;;;;17.03;10.40;;;5.90;99.90;;;;;;5064835;28;20463;-80
2023/12/18 03:37:37;;;;;;;12.43;7.27;;;5.80;99.90;;;;;;5064946;28;20483;-79
2023/12/18 03:40:08;;;;;;;14.30;8.03;;;5.90;99.90;;;;;;5063788;28;20494;-81
2023/12/18 03:42:34;;;;;;;11.23;6.93;;;5.90;99.90;;;;;;5057111;28;20489;-80
2023/12/18 03:45:01;;;;;;;15.87;8.13;;;5.90;99.90;;;;;;5066162;28;20531;-80
2023/12/18 03:47:28;;;;;;;15.73;7.47;;;5.90;99.90;;;;;;5064275;28;20459;-79
2023/12/18 03:49:56;;;;;;;12.80;7.60;;;5.90;99.90;;;;;;5063315;28;20478;-78
2023/12/18 03:52:23;;;;;;;11.90;7.40;;;5.90;99.90;;;;;;5060193;28;20501;-81
2023/12/18 03:54:50;;;;;;;12.47;6.90;;;5.90;99.90;;;;;;5065353;28;20463;-80
2023/12/18 03:57:16;;;;;;;15.70;7.20;;;5.90;99.90;;;;;;5063513;28;20531;-80
2023/12/18 03:59:43;;;;;;;16.63;9.37;;;5.80;99.90;;;;;;5063919;28;20483;-78
2023/12/18 04:02:10;;;;;;;18.20;8.80;;;5.80;99.90;;;;;;5065039;28;20457;-81
2023/12/18 04:04:37;;;;;;;14.40;9.00;;;5.70;99.90;;;;;;5065982;28;20462;-80
2023/12/18 04:07:05;;;;;;;14.60;7.83;;;5.70;99.90;;;;;;5065231;28;20463;-80
2023/12/18 04:09:32;;;;;;;13.57;9.10;;;5.80;99.90;;;;;;5064890;28;20478;-80
2023/12/18 04:11:59;;;;;;;13.57;8.17;;;5.80;99.90;;;;;;5065948;28;20490;-80
2023/12/18 04:14:25;;;;;;;13.17;9.70;;;5.80;99.90;;;;;;5064687;28;20483;-81
2023/12/18 04:16:52;;;;;;;11.83;8.10;;;5.90;99.90;;;;;;5065126;28;20463;-80
2023/12/18 04:19:19;;;;;;;17.00;9.40;;;5.80;99.90;;;;;;5064958;28;20485;-80
2023/12/18 04:21:46;;;;;;;15.27;8.50;;;5.90;99.90;;;;;;5066168;28;20546;-81
2023/12/18 04:24:14;;;;;;;14.93;8.03;;;5.90;99.90;;;;;;5066742;28;20494;-81
2023/12/18 04:26:41;;;;;;;11.87;8.83;;;6.00;99.90;;;;;;5064495;28;20581;-80
2023/12/18 04:29:07;;;;;;;13.87;8.33;;;5.90;99.90;;;;;;5064015;28;20472;-80
2023/12/18 04:31:34;;;;;;;11.83;8.63;;;5.80;99.90;;;;;;5065284;28;20471;-80
2023/12/18 04:34:01;;;;;;;19.93;8.57;;;5.90;99.90;;;;;;5065718;28;20839;-79
2023/12/18 04:36:28;;;;;;;14.57;9.17;;;5.90;99.90;;;;;;5063381;28;21020;-79
2023/12/18 04:38:55;;;;;;;11.57;7.67;;;5.80;99.90;;;;;;5063988;28;20486;-79
2023/12/18 04:41:23;;;;;;;15.53;8.00;;;5.80;99.90;;;;;;5065292;28;20514;-80
2023/12/18 04:43:52;;;;;;;15.40;9.40;;;5.70;99.90;;;;;;5066260;28;20487;-80
2023/12/18 04:46:18;;;;;;;12.67;7.90;;;5.60;99.90;;;;;;5066843;28;20522;-79
2023/12/18 04:48:45;;;;;;;22.50;8.97;;;5.70;99.90;;;;;;5065161;28;20472;-79
2023/12/18 04:51:12;;;;;;;15.97;9.00;;;5.70;99.90;;;;;;5060489;28;20467;-81
2023/12/18 04:53:41;;;;;;;18.30;11.10;;;5.80;99.90;;;;;;5074580;28;20560;-79
2023/12/18 04:56:08;;;;;;;15.80;8.97;;;5.70;99.90;;;;;;5069767;28;20461;-80
2023/12/18 04:58:36;;;;;;;16.33;9.90;;;5.80;99.90;;;;;;5079372;28;20482;-80
2023/12/18 05:01:03;;;;;;;13.30;8.97;;;5.90;99.90;;;;;;5065903;28;20456;-81
2023/12/18 05:03:30;;;;;;;21.80;10.13;;;5.90;99.90;;;;;;5068934;28;20477;-80
2023/12/18 05:05:57;;;;;;;18.80;9.27;;;5.80;99.90;;;;;;5071301;28;20511;-81
2023/12/18 05:08:24;;;;;;;14.80;9.30;;;5.80;99.90;;;;;;5065916;28;20547;-80
2023/12/18 05:10:50;;;;;;;20.23;10.13;;;5.90;99.90;;;;;;5066017;28;20484;-80
2023/12/18 05:13:17;;;;;;;20.53;10.63;;;5.90;99.90;;;;;;5066221;28;20590;-81
2023/12/18 05:15:45;;;;;;;20.10;11.33;;;5.90;99.90;;;;;;5065897;28;20460;-80
2023/12/18 05:18:13;;;;;;;18.33;10.93;;;5.80;99.90;;;;;;5064867;28;20518;-80
2023/12/18 05:20:40;;;;;;;16.83;11.00;;;5.90;99.90;;;;;;5062014;28;20566;-80
2023/12/18 05:23:06;;;;;;;21.30;11.10;;;5.90;99.90;;;;;;5061679;28;20472;-80
2023/12/18 05:25:33;;;;;;;19.53;11.70;;;6.00;99.90;;;;;;5063394;28;20829;-80
2023/12/18 05:28:00;;;;;;;16.53;11.00;;;6.00;99.90;;;;;;5064411;28;20519;-81
2023/12/18 05:30:27;;;;;;;17.40;10.87;;;6.00;99.90;;;;;;5058912;28;20474;-81
2023/12/18 05:32:55;;;;;;;20.30;11.03;;;6.00;99.90;;;;;;5065798;28;20874;-79
2023/12/18 05:35:22;;;;;;;19.20;11.70;;;5.90;99.90;;;;;;5067225;28;20478;-80
2023/12/18 05:37:48;;;;;;;13.03;10.27;;;5.90;99.90;;;;;;5067643;28;20558;-79
2023/12/18 05:40:15;;;;;;;12.63;8.60;;;5.90;99.90;;;;;;5063211;28;20509;-80
2023/12/18 05:42:42;;;;;;;12.60;8.97;;;6.00;99.90;;;;;;5054520;28;20515;-79
2023/12/18 05:45:09;;;;;;;21.50;9.93;;;6.10;99.90;;;;;;5060773;28;20465;-79
2023/12/18 05:47:36;;;;;;;14.77;9.33;;;6.10;99.90;;;;;;5061785;28;20484;-80
2023/12/18 05:50:05;;;;;;;15.83;9.90;;;6.00;99.90;;;;;;5060698;28;20558;-80
2023/12/18 05:52:31;;;;;;;12.87;9.30;;;5.80;99.90;;;;;;5060945;28;20566;-80
2023/12/18 05:54:58;;;;;;;16.70;9.33;;;6.20;99.90;;;;;;5063033;28;20465;-81
2023/12/18 05:57:25;;;;;;;15.40;9.13;;;5.90;99.90;;;;;;5067698;28;20518;-81
2023/12/18 05:59:52;;;;;;;21.00;13.33;;;5.90;99.90;;;;;;5061976;28;20490;-79
2023/12/18 06:02:19;;;;;;;16.63;10.53;;;5.90;99.90;;;;;;5059918;28;21049;-79
2023/12/18 06:04:45;;;;;;;20.13;10.30;;;5.90;99.90;;;;;;5056738;28;20458;-79
2023/12/18 06:07:14;;;;;;;17.67;10.83;;;5.90;99.90;;;;;;5066178;28;20902;-79
2023/12/18 06:09:40;;;;;;;16.60;10.30;;;5.90;99.90;;;;;;5060201;28;20817;-80
2023/12/18 06:12:08;;;;;;;15.20;9.53;;;5.90;99.90;;;;;;5068166;28;20541;-79
2023/12/18 06:14:35;;;;;;;17.93;10.10;;;5.90;99.90;;;;;;5063937;28;20563;-79
2023/12/18 06:17:02;;;;;;;20.30;10.80;;;5.90;99.90;;;;;;5058411;28;20727;-79
2023/12/18 06:19:28;;;;;;;14.70;9.67;;;5.90;99.90;;;;;;5063749;28;20509;-79
2023/12/18 06:21:55;;;;;;;16.63;11.37;;;5.90;99.90;;;;;;5057860;28;20486;-79
2023/12/18 06:24:23;;;;;;;18.07;12.07;;;5.80;99.90;;;;;;5058308;28;20457;-80
2023/12/18 06:26:52;;;;;;;15.93;10.53;;;5.90;99.90;;;;;;5061379;28;20450;-79
2023/12/18 06:29:19;;;;;;;15.80;10.00;;;6.00;99.90;;;;;;5063103;28;20493;-79
2023/12/18 06:31:47;;;;;;;16.17;10.00;;;5.90;99.90;;;;;;5062571;28;22024;-80
2023/12/18 06:34:14;;;;;;;17.30;11.20;;;5.90;99.90;;;;;;5063908;28;20494;-80
2023/12/18 06:36:42;;;;;;;21.70;11.23;;;5.80;99.90;;;;;;5059297;28;20501;-79
2023/12/18 06:39:10;;;;;;;14.63;10.67;;;5.80;99.90;;;;;;5062164;28;20480;-79
2023/12/18 06:41:38;;;;;;;18.30;11.70;;;5.90;99.90;;;;;;5063397;28;20456;-79
2023/12/18 06:44:05;;;;;;;16.53;9.67;;;5.80;99.90;;;;;;5063323;28;20466;-79
2023/12/18 06:46:34;;;;;;;17.23;10.50;;;5.80;99.90;;;;;;5063774;28;20553;-79
2023/12/18 06:49:00;;;;;;;14.00;10.20;;;5.90;99.90;;;;;;5062468;28;20482;-79
2023/12/18 06:51:27;;;;;;;18.93;10.63;;;6.00;99.90;;;;;;5061399;28;20454;-79
2023/12/18 06:53:54;;;;;;;15.77;10.20;;;5.90;99.90;;;;;;5063944;28;20498;-79
2023/12/18 06:56:21;;;;;;;19.90;11.03;;;5.90;99.90;;;;;;5064146;28;20485;-79
2023/12/18 06:58:49;;;;;;;15.60;10.87;;;5.70;99.90;;;;;;5063685;28;20457;-78
2023/12/18 07:01:17;;;;;;;16.40;11.23;;;5.80;99.90;;;;;;5063584;28;20489;-79
2023/12/18 07:03:44;;;;;;;20.60;10.70;;;5.90;99.90;;;;;;5064558;28;20462;-79
2023/12/18 07:06:11;;;;;;;15.40;10.33;;;5.80;99.90;;;;;;5062868;28;20482;-79
2023/12/18 07:08:37;;;;;;;17.10;10.13;;;5.80;99.90;;;;;;5064687;28;20480;-79
2023/12/18 07:11:04;;;;;;;13.90;10.33;;;5.90;99.90;;;;;;5064742;28;20521;-79
2023/12/18 07:13:31;;;;;;;16.27;10.70;;;5.80;99.90;;;;;;5062292;28;20574;-79
2023/12/18 07:16:00;;;;;;;19.03;11.00;;;5.80;99.90;;;;;;5062028;28;20463;-78
2023/12/18 07:18:27;;;;;;;19.10;11.13;;;5.90;99.90;;;;;;5065129;28;20494;-78
2023/12/18 07:20:54;;;;;;;16.00;10.57;;;5.80;99.90;;;;;;5062400;28;20545;-79
2023/12/18 07:23:21;;;;;;;16.77;10.63;;;5.80;99.90;;;;;;5063904;28;20472;-79
2023/12/18 07:25:48;;;;;;;16.00;10.83;;;5.80;99.90;;;;;;5064289;28;20465;-79
2023/12/18 07:28:15;;;;;;;17.20;11.93;;;5.70;99.90;;;;;;5060805;28;21059;-79
2023/12/18 07:30:45;;;;;;;14.40;10.20;;;5.80;99.90;;;;;;5063678;28;20997;-79
2023/12/18 07:33:13;;;;;;;18.30;11.13;;;5.90;99.90;;;;;;5061128;28;20513;-79
2023/12/18 07:35:40;;;;;;;16.60;10.97;;;6.00;99.90;;;;;;5064349;28;20709;-79
2023/12/18 07:38:07;;;;;;;16.27;10.07;;;6.00;99.90;;;;;;5063109;28;20463;-78
2023/12/18 07:40:36;;;;;;;17.50;10.90;;;6.00;99.90;;;;;;5059380;28;20848;-79
2023/12/18 07:43:04;;;;;;;12.83;9.37;;;6.00;99.90;;;;;;5065463;28;20511;-79
2023/12/18 07:45:31;;;;;;;15.00;10.03;;;6.00;99.90;;;;;;5063423;28;20454;-79
2023/12/18 07:47:58;;;;;;;16.33;11.07;;;6.00;99.90;;;;;;5064193;28;20510;-79
2023/12/18 07:50:26;;;;;;;13.90;9.90;;;6.00;99.90;;;;;;5063417;28;20518;-79
2023/12/18 07:52:53;;;;;;;17.03;10.53;;;6.00;99.90;;;;;;5063079;28;20474;-79
2023/12/18 07:55:20;;;;;;;18.63;10.90;;;6.10;99.90;;;;;;5063726;28;20451;-80
2023/12/18 07:57:47;;;;;;;13.47;9.90;;;5.90;99.90;;;;;;5065006;28;20483;-79
2023/12/18 08:00:15;;;;;;;16.97;9.97;;;6.00;99.90;;;;;;5058695;28;20526;-80
2023/12/18 08:02:43;;;;;;;16.77;10.00;;;5.90;99.90;;;;;;5057694;28;20463;-81
2023/12/18 08:05:10;;;;;;;13.30;9.60;;;6.00;99.90;;;;;;5064079;28;20453;-79
2023/12/18 08:07:45;;;;;;;19.23;9.87;;;6.10;99.90;;;;;;5064146;28;20463;-80
2023/12/18 08:10:14;;;;;;;19.13;11.27;;;6.10;99.90;;;;;;5064566;28;20506;-80
2023/12/18 08:12:43;;;;;;;19.27;11.67;;;5.90;99.90;;;;;;5059462;28;20444;-79
2023/12/18 08:15:12;;;;;;;16.47;9.90;;;6.00;99.90;;;;;;5059707;28;20471;-80
2023/12/18 08:17:39;;;;;;;15.23;10.73;;;6.10;99.90;;;;;;5060886;28;20461;-79
2023/12/18 08:20:08;;;;;;;16.10;9.50;;;6.10;99.90;;;;;;5064949;28;20457;-79
2023/12/18 08:22:39;;;;;;;17.33;9.80;;;6.10;99.90;;;;;;5066476;28;20492;-79
2023/12/18 08:25:08;;;;;;;18.23;11.03;;;6.10;99.90;;;;;;5054211;28;20861;-79
2023/12/18 08:27:49;;;;;;;14.83;9.90;;;6.10;99.90;;;;;;5058330;28;20525;-79
2023/12/18 08:30:16;;;;;;;15.77;10.07;;;6.10;99.90;;;;;;5054683;28;20554;-78
2023/12/18 08:32:45;;;;;;;15.57;9.57;;;6.20;99.90;;;;;;5059208;28;20497;-79
2023/12/18 08:35:12;;;;;;;12.50;8.90;;;6.20;99.90;;;;;;5060033;28;20510;-79
2023/12/18 08:37:40;;;;;;;13.17;8.07;;;6.20;99.90;;;;;;5062444;28;20464;-79
2023/12/18 08:40:11;;;;;;;13.43;8.30;;;6.10;99.90;;;;;;5063832;28;20522;-79
2023/12/18 08:42:44;;;;;;;12.53;8.53;;;6.20;99.90;;;;;;5061461;28;20459;-81
2023/12/18 08:45:11;;;;;;;14.37;9.40;;;6.20;99.90;;;;;;5063621;28;20457;-79
2023/12/18 08:47:38;;;;;;;15.03;10.33;;;6.20;99.90;;;;;;5064260;28;20480;-79
2023/12/18 08:50:07;;;;;;;14.07;9.60;;;6.10;99.90;;;;;;5058487;28;20518;-80
2023/12/18 08:52:37;;;;;;;11.77;8.90;;;6.20;99.90;;;;;;5061795;28;20463;-79
2023/12/18 08:55:10;;;;;;;19.00;9.80;;;6.10;99.90;;;;;;5063193;28;20577;-79
2023/12/18 08:57:37;;;;;;;18.53;9.80;;;6.10;99.90;;;;;;5064345;28;20461;-80
2023/12/18 09:00:06;;;;;;;14.33;8.90;;;6.30;99.90;;;;;;5055428;28;20586;-78
2023/12/18 09:02:33;;;;;;;11.23;8.27;;;6.20;99.90;;;;;;5052285;28;20478;-80
2023/12/18 09:05:03;;;;;;;19.23;11.60;;;6.20;99.90;;;;;;5063478;28;20486;-80
2023/12/18 09:07:30;;;;;;;16.20;9.33;;;6.30;99.90;;;;;;5063075;28;20444;-79
2023/12/18 09:09:57;;;;;;;16.03;10.37;;;6.30;99.90;;;;;;5059497;28;20483;-80
2023/12/18 09:12:25;;;;;;;11.83;8.57;;;6.40;99.90;;;;;;5063153;28;20858;-80
2023/12/18 09:14:52;;;;;;;14.07;9.10;;;6.40;99.90;;;;;;5054354;28;20537;-80
2023/12/18 09:17:19;;;;;;;12.40;8.50;;;6.40;99.90;;;;;;5059873;28;20458;-79
2023/12/18 09:19:45;;;;;;;13.77;9.17;;;6.60;99.90;;;;;;5056735;28;20545;-80
2023/12/18 09:22:12;;;;;;;13.97;9.20;;;6.60;99.90;;;;;;5056314;28;20459;-80
2023/12/18 09:24:39;;;;;;;16.37;8.77;;;6.70;99.90;;;;;;5058866;28;20548;-80
2023/12/18 09:27:06;;;;;;;13.60;9.30;;;6.70;99.90;;;;;;5061545;28;20563;-79
2023/12/18 09:29:34;;;;;;;14.50;8.57;;;6.70;99.90;;;;;;5054083;28;20508;-79
2023/12/18 09:32:02;;;;;;;17.23;9.47;;;6.90;99.90;;;;;;5059777;28;20550;-81
2023/12/18 09:34:29;;;;;;;11.30;9.10;;;6.90;99.90;;;;;;5060131;28;20511;-80
2023/12/18 09:36:56;;;;;;;14.73;9.10;;;6.90;99.90;;;;;;5060866;28;20983;-80
2023/12/18 09:39:23;;;;;;;15.80;8.97;;;6.80;99.90;;;;;;5056004;28;20468;-80
2023/12/18 09:41:50;;;;;;;12.43;8.90;;;6.90;99.90;;;;;;5057727;28;20545;-80
2023/12/18 09:44:16;;;;;;;12.50;8.80;;;6.90;99.90;;;;;;5059656;28;20520;-80
2023/12/18 09:46:45;;;;;;;12.57;9.20;;;7.10;99.90;;;;;;5059973;28;20458;-80
2023/12/18 09:49:11;;;;;;;13.63;9.50;;;7.10;99.90;;;;;;5060567;28;20499;-80
2023/12/18 09:51:41;;;;;;;12.90;8.40;;;7.10;99.90;;;;;;5058101;28;20470;-80
2023/12/18 09:54:08;;;;;;;16.40;10.70;;;7.20;99.90;;;;;;5058612;28;20537;-80
2023/12/18 09:56:36;;;;;;;12.53;9.23;;;7.30;99.90;;;;;;5056450;28;20476;-79
2023/12/18 09:59:04;;;;;;;14.03;8.57;;;7.30;99.90;;;;;;5055045;28;20476;-79
2023/12/18 10:01:31;;;;;;;11.27;8.53;;;7.40;99.90;;;;;;5056288;28;20483;-79
2023/12/18 10:03:59;;;;;;;12.47;8.90;;;7.30;99.90;;;;;;5059625;28;20445;-79
2023/12/18 10:06:26;;;;;;;12.40;7.27;;;7.20;99.90;;;;;;5060160;28;20532;-79
2023/12/18 10:08:52;;;;;;;13.53;9.13;;;7.00;99.90;;;;;;5059601;28;20460;-79
2023/12/18 10:11:25;;;;;;;13.70;8.20;;;7.20;99.90;;;;;;5059549;28;20438;-79
2023/12/18 10:13:53;;;;;;;13.80;8.40;;;7.00;99.90;;;;;;5055259;28;20489;-80
2023/12/18 10:16:20;;;;;;;12.93;8.73;;;7.20;99.90;;;;;;5057512;28;20548;-79
2023/12/18 10:18:47;;;;;;;12.53;8.70;;;7.20;99.90;;;;;;5059796;28;20559;-79
2023/12/18 10:21:22;;;;;;;11.23;9.43;;;7.10;99.90;;;;;;5056013;28;20516;-80
2023/12/18 10:23:49;;;;;;;11.30;7.60;;;7.20;99.90;;;;;;5059591;28;20452;-80
2023/12/18 10:26:18;;;;;;;13.13;9.03;;;7.30;99.90;;;;;;5060236;28;20472;-79
2023/12/18 10:28:45;;;;;;;12.50;7.33;;;7.20;99.90;;;;;;5059087;28;20506;-79
2023/12/18 10:31:12;;;;;;;12.40;8.70;;;7.10;99.90;;;;;;5057996;28;21162;-80
2023/12/18 10:33:39;;;;;;;17.10;9.00;;;7.10;99.90;;;;;;5061409;28;20534;-81
2023/12/18 10:36:09;;;;;;;15.97;9.30;;;7.00;99.90;;;;;;5063403;28;20571;-81
2023/12/18 10:38:40;;;;;;;15.10;10.20;;;7.10;99.90;;;;;;5060138;28;20451;-80
2023/12/18 10:41:11;;;;;;;12.57;8.70;;;7.20;99.90;;;;;;5058903;28;20565;-79
2023/12/18 10:43:40;;;;;;;13.80;9.40;;;7.10;99.90;;;;;;5059369;28;20541;-78
2023/12/18 10:46:08;;;;;;;13.10;8.73;;;7.00;99.90;;;;;;5057854;28;20448;-78
2023/12/18 10:48:36;;;;;;;16.97;8.50;;;7.00;99.90;;;;;;5060416;28;20448;-79
2023/12/18 10:51:04;;;;;;;11.77;7.87;;;7.10;99.90;;;;;;5056741;28;20449;-79
2023/12/18 10:53:37;;;;;;;12.07;10.00;;;7.00;99.90;;;;;;5062423;28;20503;-78
2023/12/18 10:56:06;;;;;;;16.53;9.20;;;7.00;99.90;;;;;;5069315;28;20567;-78
2023/12/18 10:58:35;;;;;;;11.27;8.37;;;7.00;99.90;;;;;;5063483;28;20884;-78
2023/12/18 11:01:04;;;;;;;11.07;8.17;;;7.10;99.90;;;;;;5061452;28;20464;-79
2023/12/18 11:03:31;;;;;;;14.67;8.83;;;7.10;99.90;;;;;;5062278;28;20452;-79
2023/12/18 11:05:59;;;;;;;11.77;8.00;;;7.10;99.90;;;;;;5064087;28;21027;-79
2023/12/18 11:08:25;;;;;;;14.53;8.63;;;7.00;99.90;;;;;;5063004;28;20452;-79
2023/12/18 11:10:54;;;;;;;14.67;9.37;;;6.90;99.90;;;;;;5064205;28;20461;-79
2023/12/18 11:13:26;;;;;;;10.63;8.43;;;6.90;99.90;;;;;;5061354;28;20483;-80
2023/12/18 11:16:05;;;;;;;13.60;8.33;;;7.00;99.90;;;;;;5055943;28;20472;-80
2023/12/18 11:18:44;;;;;;;12.90;9.17;;;7.00;99.90;;;;;;5060649;28;20833;-78
2023/12/18 11:21:10;;;;;;;17.87;9.10;;;7.10;99.90;;;;;;5061050;28;20483;-78
2023/12/18 11:23:40;;;;;;;17.70;10.30;;;7.20;99.90;;;;;;5064046;28;20513;-79
2023/12/18 11:26:10;;;;;;;15.63;7.60;;;7.10;99.90;;;;;;5063494;28;20459;-78
2023/12/18 11:28:38;;;;;;;13.27;8.57;;;7.10;99.90;;;;;;5065249;28;20462;-79
2023/12/18 11:31:08;;;;;;;12.20;8.80;;;7.10;99.90;;;;;;5065562;28;20494;-79
2023/12/18 11:33:34;;;;;;;12.40;9.10;;;7.10;99.90;;;;;;5064642;28;20457;-78
2023/12/18 11:36:02;;;;;;;11.70;8.37;;;7.20;99.90;;;;;;5057420;28;20563;-79
2023/12/18 11:38:33;;;;;;;12.33;8.50;;;7.20;99.90;;;;;;5068124;28;20464;-79
2023/12/18 11:41:01;;;;;;;14.17;8.03;;;7.10;99.90;;;;;;5055137;28;20464;-78
2023/12/18 11:43:35;;;;;;;13.80;9.73;;;7.20;99.90;;;;;;5065004;28;20532;-78
2023/12/18 11:46:06;;;;;;;10.40;7.50;;;7.20;99.90;;;;;;5064817;28;20486;-79
2023/12/18 11:48:34;;;;;;;14.00;8.13;;;7.20;99.90;;;;;;5063254;28;20470;-79
2023/12/18 11:51:02;;;;;;;14.20;8.20;;;7.10;99.90;;;;;;5063661;28;20456;-79
2023/12/18 11:53:33;;;;;;;11.90;8.00;;;7.00;99.90;;;;;;5065125;28;20456;-79
2023/12/18 11:56:06;;;;;;;9.20;7.90;;;7.00;99.90;;;;;;5065890;28;20515;-79
2023/12/18 11:58:36;;;;;;;16.83;9.07;;;7.10;99.90;;;;;;5064033;28;20999;-78
2023/12/18 12:01:05;;;;;;;12.07;7.30;;;7.00;99.90;;;;;;5063658;28;20470;-78
2023/12/18 12:03:33;;;;;;;14.80;9.10;;;7.20;99.90;;;;;;5064622;28;20489;-78
2023/12/18 12:06:00;;;;;;;13.00;7.80;;;7.10;99.90;;;;;;5064938;28;20448;-78
2023/12/18 12:08:27;;;;;;;11.57;8.30;;;7.20;99.90;;;;;;5063922;28;20468;-78
2023/12/18 12:10:57;;;;;;;10.20;7.23;;;7.20;99.90;;;;;;5060398;28;20485;-78
2023/12/18 12:13:25;;;;;;;13.97;7.20;;;7.20;99.90;;;;;;5056343;28;20458;-77
2023/12/18 12:15:57;;;;;;;10.70;9.17;;;7.20;99.90;;;;;;5056307;28;20868;-78
2023/12/18 12:18:26;;;;;;;12.37;7.20;;;7.20;99.90;;;;;;5055784;28;20449;-79
2023/12/18 12:20:53;;;;;;;16.07;8.30;;;7.30;99.90;;;;;;5058028;28;20734;-79
2023/12/18 12:23:20;;;;;;;12.00;7.90;;;7.20;99.90;;;;;;5056070;28;20459;-78
2023/12/18 12:25:49;;;;;;;11.60;7.13;;;7.30;99.90;;;;;;5058141;28;20495;-79
2023/12/18 12:28:16;;;;;;;11.70;6.77;;;7.10;99.90;;;;;;5061052;28;20554;-78
2023/12/18 12:30:44;;;;;;;10.23;6.37;;;7.10;99.90;;;;;;5058965;28;20460;-78
2023/12/18 12:33:10;;;;;;;10.47;7.70;;;7.10;99.90;;;;;;5060262;28;20528;-78
2023/12/18 12:35:39;;;;;;;11.97;7.03;;;7.20;99.90;;;;;;5059392;28;20491;-79
2023/12/18 12:38:07;;;;;;;10.93;7.47;;;6.90;99.90;;;;;;5059628;28;20557;-79
2023/12/18 12:40:38;;;;;;;9.20;5.70;;;7.00;99.90;;;;;;5057517;28;20539;-78
2023/12/18 12:43:09;;;;;;;10.83;8.03;;;7.10;99.90;;;;;;5061026;28;20948;-79
2023/12/18 12:45:36;;;;;;;11.17;7.30;;;7.20;99.90;;;;;;5061093;28;20510;-78
2023/12/18 12:48:06;;;;;;;10.20;6.57;;;7.20;99.90;;;;;;5060893;28;20456;-78